createdAt,value
2018-06-08T00:00:26.779Z,15.90
2018-06-08T00:02:55.291Z,16.00
2018-06-08T00:05:24.072Z,16.00
2018-06-08T00:07:52.796Z,16.10
2018-06-08T00:10:21.243Z,16.00
2018-06-08T00:15:17.856Z,16.10
2018-06-08T00:17:46.436Z,16.10
2018-06-08T00:20:15.048Z,15.90
2018-06-08T00:22:43.540Z,15.90
2018-06-08T00:25:11.940Z,15.90
2018-06-08T00:27:40.350Z,15.90
2018-06-08T00:30:08.885Z,15.90
2018-06-08T00:32:37.280Z,15.80
2018-06-08T00:35:05.976Z,16.00
2018-06-08T00:37:34.470Z,15.80
2018-06-08T00:40:02.935Z,15.60
2018-06-08T00:42:31.830Z,15.60
2018-06-08T00:45:00.529Z,15.50
2018-06-08T00:47:28.994Z,15.50
2018-06-08T00:49:57.554Z,15.60
2018-06-08T00:52:26.017Z,15.60
2018-06-08T00:54:54.610Z,15.50
2018-06-08T00:57:23.078Z,15.40
2018-06-08T00:59:51.558Z,15.40
2018-06-08T01:02:20.121Z,15.40
2018-06-08T01:04:48.515Z,15.30
2018-06-08T01:07:17.087Z,15.30
2018-06-08T01:09:45.604Z,15.20
2018-06-08T01:12:14.111Z,15.10
2018-06-08T01:14:42.599Z,15.10
2018-06-08T01:17:11.067Z,15.10
2018-06-08T01:19:39.836Z,15.30
2018-06-08T01:22:08.398Z,15.50
2018-06-08T01:24:36.918Z,15.60
2018-06-08T01:27:05.459Z,15.50
2018-06-08T01:29:33.878Z,15.40
2018-06-08T01:32:02.441Z,15.30
2018-06-08T01:34:30.864Z,15.40
2018-06-08T01:36:59.401Z,15.20
2018-06-08T01:39:28.071Z,15.10
2018-06-08T01:41:56.588Z,15.20
2018-06-08T01:44:25.122Z,15.30
2018-06-08T01:46:53.652Z,15.40
2018-06-08T01:49:22.186Z,15.30
2018-06-08T01:51:50.818Z,15.20
2018-06-08T01:54:19.246Z,15.10
2018-06-08T01:56:47.649Z,15.10
2018-06-08T01:59:16.323Z,15.10
2018-06-08T02:01:44.707Z,14.90
2018-06-08T02:04:13.091Z,14.90
2018-06-08T02:06:41.518Z,14.90
2018-06-08T02:09:09.930Z,15.00
2018-06-08T02:11:38.354Z,15.20
2018-06-08T02:14:06.829Z,15.10
2018-06-08T02:16:35.306Z,15.00
2018-06-08T02:19:04.588Z,14.90
2018-06-08T02:21:33.029Z,14.80
2018-06-08T02:24:01.535Z,14.80
2018-06-08T02:26:30.226Z,14.80
2018-06-08T02:28:58.604Z,14.70
2018-06-08T02:31:27.064Z,14.60
2018-06-08T02:33:55.659Z,14.50
2018-06-08T02:36:24.291Z,14.50
2018-06-08T02:38:52.803Z,14.40
2018-06-08T02:41:21.232Z,14.40
2018-06-08T02:43:49.706Z,14.60
2018-06-08T02:46:18.382Z,14.60
2018-06-08T02:48:46.810Z,14.60
2018-06-08T02:51:15.324Z,14.60
2018-06-08T02:53:43.999Z,14.60
2018-06-08T02:56:12.483Z,14.60
2018-06-08T02:58:41.076Z,14.60
2018-06-08T03:01:09.556Z,14.50
2018-06-08T03:03:38.008Z,14.40
2018-06-08T03:06:07.311Z,14.40
2018-06-08T03:08:35.803Z,14.40
2018-06-08T03:11:04.445Z,14.40
2018-06-08T03:16:01.121Z,14.70
2018-06-08T03:18:29.536Z,14.90
2018-06-08T03:20:58.148Z,14.90
2018-06-08T03:23:26.623Z,15.00
2018-06-08T03:25:55.166Z,15.00
2018-06-08T03:28:23.566Z,15.10
2018-06-08T03:30:52.119Z,15.10
2018-06-08T03:33:20.854Z,14.90
2018-06-08T03:35:49.392Z,14.90
2018-06-08T03:38:17.907Z,14.80
2018-06-08T03:40:46.314Z,14.80
2018-06-08T03:43:14.947Z,14.80
2018-06-08T03:45:43.335Z,14.70
2018-06-08T03:48:12.416Z,14.60
2018-06-08T03:50:41.045Z,14.50
2018-06-08T03:53:10.096Z,14.60
2018-06-08T03:55:39.851Z,14.70
2018-06-08T03:58:08.668Z,14.70
2018-06-08T04:00:37.271Z,14.80
2018-06-08T04:03:05.703Z,14.80
2018-06-08T04:05:34.184Z,14.80
2018-06-08T04:08:03.026Z,14.90
2018-06-08T04:10:31.956Z,14.80
2018-06-08T04:13:00.391Z,14.90
2018-06-08T04:15:28.826Z,14.80
2018-06-08T04:17:57.359Z,14.80
2018-06-08T04:20:26.078Z,14.80
2018-06-08T04:22:54.575Z,14.90
2018-06-08T04:25:23.010Z,15.00
2018-06-08T04:27:51.767Z,15.00
2018-06-08T04:30:20.360Z,15.10
2018-06-08T04:32:48.850Z,14.90
2018-06-08T04:35:17.303Z,14.90
2018-06-08T04:37:45.875Z,14.80
2018-06-08T04:40:14.370Z,14.70
2018-06-08T04:42:42.837Z,14.70
2018-06-08T04:45:11.302Z,14.70
2018-06-08T04:47:40.017Z,14.70
2018-06-08T04:50:08.459Z,14.70
2018-06-08T04:52:37.041Z,14.80
2018-06-08T04:55:05.462Z,14.80
2018-06-08T04:57:34.052Z,14.80
2018-06-08T05:00:02.786Z,14.80
2018-06-08T05:02:31.367Z,14.80
2018-06-08T05:05:00.011Z,14.80
2018-06-08T05:07:28.644Z,14.80
2018-06-08T05:09:57.113Z,14.90
2018-06-08T05:12:26.438Z,14.90
2018-06-08T05:14:55.051Z,15.00
2018-06-08T05:17:23.642Z,15.10
2018-06-08T05:19:52.087Z,15.10
2018-06-08T05:22:20.537Z,15.00
2018-06-08T05:27:17.218Z,15.20
2018-06-08T05:29:45.619Z,15.30
2018-06-08T05:32:14.047Z,15.50
2018-06-08T05:34:42.686Z,15.70
2018-06-08T05:37:11.208Z,15.70
2018-06-08T05:39:39.842Z,15.70
2018-06-08T05:42:08.727Z,15.70
2018-06-08T05:44:37.172Z,15.80
2018-06-08T05:47:05.869Z,16.00
2018-06-08T05:49:34.395Z,16.20
2018-06-08T05:52:02.876Z,16.10
2018-06-08T05:54:31.368Z,16.40
2018-06-08T05:56:59.841Z,16.40
2018-06-08T05:59:28.398Z,16.20
2018-06-08T06:01:56.799Z,16.10
2018-06-08T06:04:25.220Z,16.20
2018-06-08T06:06:53.899Z,16.20
2018-06-08T06:09:22.327Z,16.40
2018-06-08T06:11:50.971Z,16.70
2018-06-08T06:14:19.433Z,16.70
2018-06-08T06:16:48.046Z,16.90
2018-06-08T06:19:16.491Z,16.80
2018-06-08T06:21:45.106Z,17.00
2018-06-08T06:24:13.664Z,16.80
2018-06-08T06:26:42.168Z,16.70
2018-06-08T06:29:10.584Z,16.80
2018-06-08T06:31:39.179Z,16.90
2018-06-08T06:34:07.814Z,17.00
2018-06-08T06:36:36.263Z,17.10
2018-06-08T06:39:07.539Z,17.20
2018-06-08T06:41:36.138Z,17.40
2018-06-08T06:44:04.608Z,17.60
2018-06-08T06:46:33.180Z,17.50
2018-06-08T06:49:02.487Z,17.60
2018-06-08T06:51:31.039Z,17.80
2018-06-08T06:53:59.494Z,17.90
2018-06-08T06:56:27.904Z,18.00
2018-06-08T06:58:56.341Z,17.90
2018-06-08T07:01:24.831Z,17.70
2018-06-08T07:03:53.306Z,17.80
2018-06-08T07:06:21.755Z,18.00
2018-06-08T07:08:50.316Z,18.00
2018-06-08T07:11:18.786Z,18.20
2018-06-08T07:13:47.243Z,18.40
2018-06-08T07:16:15.787Z,18.40
2018-06-08T07:18:44.809Z,18.60
2018-06-08T07:21:13.191Z,18.80
2018-06-08T07:23:41.620Z,19.10
2018-06-08T07:26:10.160Z,19.10
2018-06-08T07:28:38.603Z,19.20
2018-06-08T07:31:07.228Z,19.20
2018-06-08T07:33:35.675Z,19.30
2018-06-08T07:36:04.415Z,19.40
2018-06-08T07:38:32.915Z,19.50
2018-06-08T07:41:01.335Z,19.60
2018-06-08T07:43:29.920Z,19.70
2018-06-08T07:45:58.598Z,19.80
2018-06-08T07:48:27.160Z,20.00
2018-06-08T07:50:55.623Z,20.20
2018-06-08T07:53:24.032Z,20.50
2018-06-08T07:55:52.624Z,20.70
2018-06-08T07:58:21.212Z,20.80
2018-06-08T08:00:49.939Z,20.90
2018-06-08T08:03:18.514Z,21.00
2018-06-08T08:05:47.075Z,21.20
2018-06-08T08:08:15.557Z,21.30
2018-06-08T08:10:43.978Z,21.40
2018-06-08T08:13:12.444Z,21.70
2018-06-08T08:15:40.918Z,21.90
2018-06-08T08:18:09.451Z,22.10
2018-06-08T08:20:38.044Z,22.20
2018-06-08T08:23:06.671Z,22.30
2018-06-08T08:25:35.218Z,22.30
2018-06-08T08:28:03.807Z,22.40
2018-06-08T08:30:32.274Z,22.50
2018-06-08T08:33:00.756Z,22.70
2018-06-08T08:35:29.375Z,22.80
2018-06-08T08:37:58.037Z,23.00
2018-06-08T08:40:26.515Z,23.20
2018-06-08T08:42:55.127Z,23.20
2018-06-08T08:45:23.579Z,23.20
2018-06-08T08:47:52.022Z,23.20
2018-06-08T08:50:20.674Z,23.20
2018-06-08T08:52:49.283Z,23.30
2018-06-08T08:55:17.784Z,23.50
2018-06-08T08:57:46.174Z,23.80
2018-06-08T09:00:14.652Z,24.00
2018-06-08T09:02:43.112Z,24.10
2018-06-08T09:05:11.526Z,23.90
2018-06-08T09:07:40.028Z,23.50
2018-06-08T09:10:08.621Z,23.80
2018-06-08T09:12:37.272Z,23.90
2018-06-08T09:15:05.884Z,23.80
2018-06-08T09:17:34.243Z,24.00
2018-06-08T09:20:02.706Z,24.10
2018-06-08T09:22:31.161Z,24.20
2018-06-08T09:24:59.531Z,24.60
2018-06-08T09:27:28.038Z,24.60
2018-06-08T09:29:56.607Z,25.10
2018-06-08T09:32:25.095Z,25.10
2018-06-08T09:34:53.460Z,24.80
2018-06-08T09:37:21.944Z,24.50
2018-06-08T09:39:50.378Z,24.20
2018-06-08T09:42:18.779Z,24.00
2018-06-08T09:44:47.252Z,23.90
2018-06-08T09:47:15.831Z,24.10
2018-06-08T09:49:44.256Z,24.60
2018-06-08T09:52:12.723Z,25.20
2018-06-08T09:54:41.198Z,25.50
2018-06-08T09:57:09.593Z,26.00
2018-06-08T09:59:38.218Z,26.30
2018-06-08T10:02:06.610Z,26.10
2018-06-08T10:04:35.277Z,26.20
2018-06-08T10:07:03.966Z,25.70
2018-06-08T10:09:32.490Z,25.80
2018-06-08T10:12:00.981Z,26.30
2018-06-08T10:14:29.549Z,26.40
2018-06-08T10:16:58.010Z,26.20
2018-06-08T10:19:26.763Z,25.80
2018-06-08T10:21:55.316Z,25.90
2018-06-08T10:24:23.963Z,26.00
2018-06-08T10:26:52.512Z,25.60
2018-06-08T10:29:20.936Z,25.70
2018-06-08T10:31:49.439Z,25.70
2018-06-08T10:34:18.012Z,25.90
2018-06-08T10:36:46.486Z,26.20
2018-06-08T10:39:14.980Z,25.80
2018-06-08T10:41:43.783Z,26.00
2018-06-08T10:44:12.261Z,25.80
2018-06-08T10:46:40.830Z,25.70
2018-06-08T10:49:09.220Z,26.20
2018-06-08T10:51:37.769Z,26.70
2018-06-08T10:54:06.466Z,26.60
2018-06-08T10:56:34.849Z,26.50
2018-06-08T10:59:03.423Z,26.80
2018-06-08T11:01:31.926Z,27.10
2018-06-08T11:04:00.403Z,27.00
2018-06-08T11:06:28.946Z,27.20
2018-06-08T11:08:57.400Z,27.30
2018-06-08T11:11:25.952Z,27.30
2018-06-08T11:13:55.290Z,27.70
2018-06-08T11:16:23.891Z,28.60
2018-06-08T11:18:52.390Z,28.90
2018-06-08T11:21:20.883Z,28.90
2018-06-08T11:23:49.420Z,28.10
2018-06-08T11:26:18.355Z,27.30
2018-06-08T11:28:46.762Z,26.90
2018-06-08T11:31:15.328Z,27.10
2018-06-08T11:33:43.739Z,27.30
2018-06-08T11:36:12.350Z,27.90
2018-06-08T11:38:40.821Z,28.00
2018-06-08T11:41:09.212Z,27.80
2018-06-08T11:43:37.730Z,27.70
2018-06-08T11:46:06.171Z,27.10
2018-06-08T11:48:35.585Z,26.20
2018-06-08T11:51:04.199Z,26.20
2018-06-08T11:53:32.746Z,26.70
2018-06-08T11:56:01.180Z,27.40
2018-06-08T11:58:29.570Z,27.80
2018-06-08T12:00:58.073Z,27.90
2018-06-08T12:03:26.842Z,27.80
2018-06-08T12:05:55.364Z,27.80
2018-06-08T12:08:23.909Z,28.20
2018-06-08T12:10:52.423Z,28.70
2018-06-08T12:13:20.982Z,28.90
2018-06-08T12:15:49.517Z,28.70
2018-06-08T12:18:18.062Z,28.30
2018-06-08T12:20:46.488Z,27.90
2018-06-08T12:23:15.043Z,27.90
2018-06-08T12:25:43.600Z,27.40
2018-06-08T12:28:12.072Z,27.20
2018-06-08T12:30:40.570Z,27.30
2018-06-08T12:33:09.124Z,27.10
2018-06-08T12:35:37.562Z,27.40
2018-06-08T12:38:06.099Z,27.90
2018-06-08T12:40:34.710Z,27.90
2018-06-08T12:43:03.341Z,28.10
2018-06-08T12:45:31.780Z,28.10
2018-06-08T12:48:00.283Z,27.80
2018-06-08T12:50:28.872Z,28.10
2018-06-08T12:52:57.374Z,28.20
2018-06-08T12:55:25.825Z,28.20
2018-06-08T12:57:54.502Z,28.50
2018-06-08T13:00:23.059Z,28.80
2018-06-08T13:02:51.588Z,29.10
2018-06-08T13:05:20.034Z,29.00
2018-06-08T13:07:48.486Z,28.40
2018-06-08T13:10:16.931Z,28.70
2018-06-08T13:12:45.338Z,28.80
2018-06-08T13:15:13.800Z,29.00
2018-06-08T13:17:42.313Z,29.30
2018-06-08T13:20:10.944Z,29.70
2018-06-08T13:22:39.517Z,30.10
2018-06-08T13:25:07.959Z,30.00
2018-06-08T13:27:36.520Z,29.40
2018-06-08T13:30:05.104Z,28.90
2018-06-08T13:32:33.563Z,29.30
2018-06-08T13:35:02.047Z,28.90
2018-06-08T13:37:30.488Z,29.10
2018-06-08T13:39:59.343Z,28.80
2018-06-08T13:42:27.810Z,28.00
2018-06-08T13:44:56.606Z,27.80
2018-06-08T13:47:25.141Z,27.70
2018-06-08T13:49:53.623Z,28.00
2018-06-08T13:52:22.116Z,28.90
2018-06-08T13:54:50.553Z,28.80
2018-06-08T13:57:19.055Z,29.00
2018-06-08T13:59:47.798Z,28.90
2018-06-08T14:02:16.426Z,28.60
2018-06-08T14:04:45.117Z,28.30
2018-06-08T14:07:13.740Z,28.60
2018-06-08T14:09:42.408Z,28.60
2018-06-08T14:12:10.964Z,28.50
2018-06-08T14:14:39.511Z,28.50
2018-06-08T14:17:08.057Z,28.40
2018-06-08T14:19:37.198Z,28.70
2018-06-08T14:22:05.719Z,28.30
2018-06-08T14:24:34.324Z,28.00
2018-06-08T14:27:02.891Z,28.40
2018-06-08T14:29:32.184Z,28.60
2018-06-08T14:32:00.684Z,28.60
2018-06-08T14:34:29.285Z,28.70
2018-06-08T14:36:57.984Z,28.40
2018-06-08T14:39:26.521Z,28.20
2018-06-08T14:41:54.972Z,28.50
2018-06-08T14:44:23.475Z,29.30
2018-06-08T14:46:51.943Z,30.00
2018-06-08T14:49:20.504Z,30.70
2018-06-08T14:51:48.941Z,31.20
2018-06-08T14:54:17.527Z,31.10
2018-06-08T14:56:45.977Z,30.30
2018-06-08T14:59:14.738Z,29.60
2018-06-08T15:01:43.188Z,30.10
2018-06-08T15:04:11.737Z,30.60
2018-06-08T15:06:40.252Z,30.10
2018-06-08T15:11:37.168Z,29.20
2018-06-08T15:14:05.786Z,28.80
2018-06-08T15:16:36.272Z,28.60
2018-06-08T15:19:04.771Z,28.50
2018-06-08T15:21:33.515Z,29.80
2018-06-08T15:24:02.215Z,31.60
2018-06-08T15:26:30.692Z,32.90
2018-06-08T15:28:59.136Z,33.30
2018-06-08T15:31:27.635Z,33.10
2018-06-08T15:33:56.078Z,32.60
2018-06-08T15:36:24.562Z,31.90
2018-06-08T15:38:53.108Z,32.00
2018-06-08T15:41:21.534Z,32.20
2018-06-08T15:43:50.038Z,32.00
2018-06-08T15:46:18.496Z,32.00
2018-06-08T15:48:46.991Z,32.60
2018-06-08T15:51:15.426Z,32.90
2018-06-08T15:53:43.967Z,32.60
2018-06-08T15:56:12.624Z,32.60
2018-06-08T15:58:41.175Z,31.40
2018-06-08T16:01:09.703Z,31.20
2018-06-08T16:03:38.135Z,31.00
2018-06-08T16:06:06.665Z,30.70
2018-06-08T16:08:35.166Z,30.00
2018-06-08T16:11:03.855Z,29.70
2018-06-08T16:13:32.286Z,29.40
2018-06-08T16:16:01.319Z,28.80
2018-06-08T16:18:29.893Z,28.30
2018-06-08T16:20:58.403Z,28.00
2018-06-08T16:23:26.997Z,27.80
2018-06-08T16:25:55.436Z,27.40
2018-06-08T16:28:24.006Z,27.40
2018-06-08T16:30:52.547Z,27.30
2018-06-08T16:33:21.095Z,27.00
2018-06-08T16:35:49.656Z,26.90
2018-06-08T16:38:18.343Z,26.80
2018-06-08T16:40:46.786Z,26.70
2018-06-08T16:43:15.322Z,26.80
2018-06-08T16:45:43.786Z,26.70
2018-06-08T16:48:12.240Z,26.60
2018-06-08T16:50:41.052Z,26.40
2018-06-08T16:53:09.899Z,26.40
2018-06-08T16:55:38.526Z,26.20
2018-06-08T16:58:07.316Z,26.20
2018-06-08T17:00:35.834Z,26.10
2018-06-08T17:03:04.384Z,26.10
2018-06-08T17:05:33.100Z,26.00
2018-06-08T17:08:01.692Z,26.00
2018-06-08T17:10:30.202Z,25.90
2018-06-08T17:12:58.611Z,25.80
2018-06-08T17:15:27.815Z,25.80
2018-06-08T17:17:56.376Z,25.70
2018-06-08T17:20:24.977Z,25.70
2018-06-08T17:22:53.599Z,25.70
2018-06-08T17:25:22.026Z,25.60
2018-06-08T17:27:50.622Z,25.60
2018-06-08T17:30:19.372Z,25.60
2018-06-08T17:32:47.859Z,25.50
2018-06-08T17:35:16.355Z,25.40
2018-06-08T17:37:44.907Z,25.30
2018-06-08T17:40:13.330Z,25.30
2018-06-08T17:42:41.779Z,25.20
2018-06-08T17:45:10.408Z,25.20
2018-06-08T17:50:07.238Z,25.20
2018-06-08T17:52:35.855Z,25.10
2018-06-08T17:55:04.415Z,24.90
2018-06-08T17:57:33.170Z,24.70
2018-06-08T18:00:01.780Z,24.60
2018-06-08T18:02:30.387Z,24.50
2018-06-08T18:04:58.925Z,24.60
2018-06-08T18:07:27.363Z,24.40
2018-06-08T18:09:55.805Z,24.30
2018-06-08T18:12:24.433Z,23.70
2018-06-08T18:14:53.924Z,23.10
2018-06-08T18:17:22.561Z,22.50
2018-06-08T18:19:51.038Z,22.20
2018-06-08T18:22:19.563Z,21.70
2018-06-08T18:24:48.139Z,21.50
2018-06-08T18:27:16.686Z,21.30
2018-06-08T18:29:45.141Z,21.10
2018-06-08T18:32:13.724Z,20.70
2018-06-08T18:34:42.341Z,20.10
2018-06-08T18:37:11.720Z,19.40
2018-06-08T18:39:40.296Z,18.90
2018-06-08T18:42:09.067Z,18.90
2018-06-08T18:44:37.495Z,18.80
2018-06-08T18:47:06.001Z,18.90
2018-06-08T18:49:34.437Z,19.10
2018-06-08T18:52:03.002Z,19.10
2018-06-08T18:54:31.529Z,19.20
2018-06-08T18:57:00.130Z,19.40
2018-06-08T18:59:28.623Z,19.40
2018-06-08T19:01:57.175Z,19.20
2018-06-08T19:04:25.672Z,19.20
2018-06-08T19:06:54.295Z,19.20
2018-06-08T19:09:22.805Z,19.00
2018-06-08T19:11:51.402Z,19.00
2018-06-08T19:14:20.166Z,19.10
2018-06-08T19:16:48.760Z,19.00
2018-06-08T19:19:17.288Z,18.90
2018-06-08T19:21:45.891Z,18.90
2018-06-08T19:24:14.502Z,18.90
2018-06-08T19:26:43.027Z,19.10
2018-06-08T19:29:11.454Z,19.00
2018-06-08T19:31:40.039Z,18.90
2018-06-08T19:34:08.559Z,18.90
2018-06-08T19:36:37.184Z,18.80
2018-06-08T19:39:09.356Z,18.80
2018-06-08T19:41:37.799Z,18.90
2018-06-08T19:44:06.271Z,19.00
2018-06-08T19:46:34.709Z,18.80
2018-06-08T19:49:03.424Z,18.80
2018-06-08T19:51:32.887Z,18.70
2018-06-08T19:54:01.400Z,18.80
2018-06-08T19:56:29.881Z,18.80
2018-06-08T19:58:58.435Z,18.70
2018-06-08T20:01:26.950Z,18.50
2018-06-08T20:03:55.840Z,18.30
2018-06-08T20:06:24.381Z,18.40
2018-06-08T20:08:53.052Z,18.30
2018-06-08T20:11:21.669Z,18.40
2018-06-08T20:13:50.232Z,18.70
2018-06-08T20:16:18.710Z,18.60
2018-06-08T20:18:47.268Z,18.70
2018-06-08T20:21:15.865Z,18.80
2018-06-08T20:23:44.590Z,18.70
2018-06-08T20:26:13.028Z,18.60
2018-06-08T20:28:41.527Z,18.40
2018-06-08T20:31:10.078Z,18.20
2018-06-08T20:33:38.654Z,18.00
2018-06-08T20:36:07.507Z,17.90
2018-06-08T20:38:36.090Z,17.90
2018-06-08T20:41:04.866Z,17.70
2018-06-08T20:43:33.710Z,17.60
2018-06-08T20:46:02.290Z,17.60
2018-06-08T20:48:30.868Z,17.60
2018-06-08T20:50:59.575Z,17.70
2018-06-08T20:53:28.130Z,17.70
2018-06-08T20:55:56.793Z,17.70
2018-06-08T20:58:29.543Z,17.80
2018-06-08T21:00:58.115Z,17.80
2018-06-08T21:03:26.696Z,17.80
2018-06-08T21:05:55.158Z,18.20
2018-06-08T21:08:23.624Z,18.20
2018-06-08T21:10:52.180Z,18.10
2018-06-08T21:13:21.368Z,17.80
2018-06-08T21:15:49.942Z,17.60
2018-06-08T21:18:18.677Z,17.50
2018-06-08T21:20:47.287Z,17.70
2018-06-08T21:23:15.774Z,18.00
2018-06-08T21:25:44.200Z,17.90
2018-06-08T21:28:12.684Z,17.70
2018-06-08T21:30:41.211Z,17.60
2018-06-08T21:33:09.853Z,17.50
2018-06-08T21:35:38.887Z,17.40
2018-06-08T21:38:07.373Z,17.40
2018-06-08T21:40:35.980Z,17.40
2018-06-08T21:43:04.455Z,17.40
2018-06-08T21:45:33.003Z,17.40
2018-06-08T21:48:01.576Z,17.40
2018-06-08T21:50:30.050Z,17.50
2018-06-08T21:52:58.602Z,17.40
2018-06-08T21:55:27.121Z,17.30
2018-06-08T21:57:55.496Z,17.20
2018-06-08T22:00:24.095Z,17.20
2018-06-08T22:02:52.795Z,17.20
2018-06-08T22:05:21.311Z,17.20
2018-06-08T22:07:49.744Z,17.20
2018-06-08T22:10:18.267Z,17.20
2018-06-08T22:12:46.835Z,17.10
2018-06-08T22:15:15.256Z,17.10
2018-06-08T22:17:43.825Z,17.00
2018-06-08T22:20:13.383Z,16.90
2018-06-08T22:22:42.059Z,16.80
2018-06-08T22:25:10.534Z,16.80
2018-06-08T22:27:39.027Z,16.90
2018-06-08T22:30:07.492Z,16.90
2018-06-08T22:32:36.010Z,16.90
2018-06-08T22:35:04.567Z,17.00
2018-06-08T22:37:33.101Z,17.10
2018-06-08T22:40:01.598Z,17.20
2018-06-08T22:42:30.203Z,17.10
2018-06-08T22:44:58.643Z,17.10
2018-06-08T22:47:27.078Z,17.00
2018-06-08T22:49:55.733Z,17.00
2018-06-08T22:52:24.190Z,17.00
2018-06-08T22:54:52.608Z,16.90
2018-06-08T22:57:21.024Z,16.90
2018-06-08T22:59:49.608Z,16.90
2018-06-08T23:02:18.029Z,16.90
2018-06-08T23:04:46.424Z,16.90
2018-06-08T23:07:14.930Z,16.90
2018-06-08T23:09:43.345Z,16.90
2018-06-08T23:12:11.936Z,16.90
2018-06-08T23:14:40.346Z,16.80
2018-06-08T23:17:08.839Z,16.80
2018-06-08T23:19:37.428Z,16.70
2018-06-08T23:22:05.654Z,16.70
2018-06-08T23:24:34.183Z,16.70
2018-06-08T23:27:02.602Z,16.70
2018-06-08T23:29:31.128Z,16.70
2018-06-08T23:31:59.809Z,16.60
2018-06-08T23:34:28.301Z,16.60
2018-06-08T23:36:56.744Z,16.50
2018-06-08T23:39:25.132Z,16.50
2018-06-08T23:41:53.665Z,16.50
2018-06-08T23:44:22.155Z,16.50
2018-06-08T23:46:50.740Z,16.50
2018-06-08T23:49:19.326Z,16.50
2018-06-08T23:51:47.852Z,16.40
2018-06-08T23:54:16.341Z,16.40
2018-06-08T23:56:44.993Z,16.40
2018-06-08T23:59:13.503Z,16.40
